createdAt,value
2023-05-12T00:01:57.471Z,58.92
2023-05-12T00:04:26.250Z,59.06
2023-05-12T00:06:54.966Z,58.69
2023-05-12T00:09:23.439Z,58.94
2023-05-12T00:11:52.702Z,58.75
2023-05-12T00:14:21.130Z,59.00
2023-05-12T00:16:52.252Z,58.65
2023-05-12T00:19:21.187Z,58.75
2023-05-12T00:21:49.797Z,58.70
2023-05-12T00:24:18.188Z,58.74
2023-05-12T00:26:46.894Z,58.67
2023-05-12T00:29:15.404Z,58.76
2023-05-12T00:31:44.107Z,58.71
2023-05-12T00:34:12.520Z,58.78
2023-05-12T00:36:41.232Z,58.69
2023-05-12T00:39:10.396Z,58.71
2023-05-12T00:41:39.103Z,58.56
2023-05-12T00:44:07.575Z,58.78
2023-05-12T00:46:37.208Z,58.79
2023-05-12T00:49:05.554Z,58.86
2023-05-12T00:51:34.313Z,58.78
2023-05-12T00:54:02.884Z,58.82
2023-05-12T00:56:31.583Z,58.84
2023-05-12T00:58:59.981Z,58.71
2023-05-12T01:01:30.660Z,58.64
2023-05-12T01:03:59.307Z,58.52
2023-05-12T01:07:05.926Z,58.62
2023-05-12T01:09:34.685Z,58.89
2023-05-12T01:12:04.414Z,58.61
2023-05-12T01:14:34.530Z,58.56
2023-05-12T01:17:06.252Z,58.79
2023-05-12T01:19:42.182Z,58.60
2023-05-12T01:22:13.117Z,58.87
2023-05-12T01:24:57.610Z,58.79
2023-05-12T01:27:28.618Z,58.78
2023-05-12T01:30:00.890Z,58.81
2023-05-12T01:32:31.101Z,58.74
2023-05-12T01:35:00.435Z,58.80
2023-05-12T01:37:31.156Z,58.93
2023-05-12T01:40:00.461Z,58.87
2023-05-12T01:42:29.254Z,58.92
2023-05-12T01:44:57.715Z,58.71
2023-05-12T01:47:27.722Z,58.67
2023-05-12T01:50:13.818Z,58.64
2023-05-12T01:52:44.777Z,58.82
2023-05-12T01:55:16.455Z,58.79
2023-05-12T01:57:51.759Z,58.69
2023-05-12T02:00:21.914Z,58.78
2023-05-12T02:02:53.527Z,58.86
2023-05-12T02:05:22.426Z,58.85
2023-05-12T02:07:52.398Z,58.69
2023-05-12T02:10:21.184Z,58.72
2023-05-12T02:12:50.230Z,58.85
2023-05-12T02:15:19.089Z,58.93
2023-05-12T02:17:50.493Z,58.75
2023-05-12T02:20:20.160Z,58.77
2023-05-12T02:22:49.014Z,58.80
2023-05-12T02:25:17.472Z,58.87
2023-05-12T02:27:46.901Z,58.73
2023-05-12T02:30:15.989Z,58.57
2023-05-12T02:32:44.842Z,58.63
2023-05-12T02:35:14.270Z,58.71
2023-05-12T02:37:44.209Z,58.87
2023-05-12T02:40:13.083Z,58.57
2023-05-12T02:42:43.853Z,58.82
2023-05-12T02:45:12.816Z,58.77
2023-05-12T02:47:41.709Z,58.54
2023-05-12T02:50:11.352Z,58.70
2023-05-12T02:52:40.267Z,58.67
2023-05-12T02:55:09.573Z,58.66
2023-05-12T02:57:38.326Z,58.84
2023-05-12T03:00:07.694Z,58.71
2023-05-12T03:02:39.961Z,58.59
2023-05-12T03:05:11.866Z,58.76
2023-05-12T03:07:40.621Z,58.65
2023-05-12T03:10:10.905Z,58.79
2023-05-12T03:12:39.797Z,58.73
2023-05-12T03:15:09.217Z,58.60
2023-05-12T03:17:38.120Z,58.63
2023-05-12T03:20:07.675Z,58.49
2023-05-12T03:22:38.338Z,58.96
2023-05-12T03:25:08.682Z,58.90
2023-05-12T03:27:37.898Z,58.69
2023-05-12T03:30:07.233Z,58.74
2023-05-12T03:32:41.696Z,58.46
2023-05-12T03:35:12.011Z,58.71
2023-05-12T03:37:41.148Z,58.53
2023-05-12T03:40:11.404Z,58.63
2023-05-12T03:42:40.057Z,58.61
2023-05-12T03:45:11.431Z,58.70
2023-05-12T03:47:40.990Z,58.56
2023-05-12T03:50:10.857Z,58.71
2023-05-12T03:52:41.709Z,58.87
2023-05-12T03:55:10.718Z,58.48
2023-05-12T03:57:39.423Z,58.60
2023-05-12T04:00:08.595Z,58.64
2023-05-12T04:02:46.694Z,58.58
2023-05-12T04:05:16.421Z,58.56
2023-05-12T08:09:00.959Z,58.05
2023-05-12T08:11:29.616Z,58.26
2023-05-12T08:13:58.017Z,58.20
2023-05-12T08:16:26.868Z,58.15
2023-05-12T08:18:55.309Z,57.98
2023-05-12T08:21:24.216Z,57.98
2023-05-12T08:23:52.506Z,58.02
2023-05-12T08:26:21.614Z,58.18
2023-05-12T08:28:49.957Z,58.24
2023-05-12T08:31:18.790Z,58.06
2023-05-12T08:33:51.738Z,58.22
2023-05-12T08:36:22.830Z,58.13
2023-05-12T08:38:51.184Z,58.19
2023-05-12T08:41:23.751Z,58.02
2023-05-12T08:43:52.802Z,57.97
2023-05-12T08:46:21.794Z,57.98
2023-05-12T08:48:51.354Z,58.17
2023-05-12T08:51:20.063Z,58.22
2023-05-12T08:53:48.515Z,58.05
2023-05-12T08:58:51.872Z,58.19
2023-05-12T09:01:21.238Z,57.87
2023-05-12T09:03:51.421Z,57.98
2023-05-12T09:06:20.605Z,57.94
2023-05-12T09:08:49.024Z,58.03
2023-05-12T09:11:17.998Z,58.00
2023-05-12T09:14:09.264Z,57.93
2023-05-12T09:16:44.571Z,57.89
2023-05-12T09:19:12.993Z,57.77
2023-05-12T09:21:42.136Z,57.98
2023-05-12T09:24:10.455Z,57.78
2023-05-12T09:27:05.785Z,57.50
2023-05-12T09:29:37.520Z,57.74
2023-05-12T09:32:11.147Z,57.75
2023-05-12T09:34:41.686Z,57.27
2023-05-12T09:37:10.554Z,57.28
2023-05-12T09:39:38.936Z,57.26
2023-05-12T09:42:13.074Z,57.60
2023-05-12T09:44:42.232Z,57.64
2023-05-12T09:47:11.231Z,57.32
2023-05-12T09:49:42.286Z,57.32
2023-05-12T09:52:10.960Z,57.38
2023-05-12T09:54:39.476Z,57.34
2023-05-12T09:57:08.986Z,57.37
2023-05-12T09:59:39.680Z,57.03
2023-05-12T10:02:09.903Z,56.95
2023-05-12T10:04:53.700Z,57.05
2023-05-12T10:07:24.267Z,56.91
2023-05-12T10:09:53.045Z,56.96
2023-05-12T10:12:21.724Z,56.71
2023-05-12T10:14:50.494Z,56.65
2023-05-12T10:17:20.854Z,56.86
2023-05-12T10:19:49.378Z,56.67
2023-05-12T10:22:18.052Z,56.69
2023-05-12T10:24:46.512Z,56.78
2023-05-12T10:27:16.118Z,56.59
2023-05-12T10:29:44.624Z,56.50
2023-05-12T10:32:13.334Z,56.21
2023-05-12T10:34:42.269Z,56.42
2023-05-12T10:37:11.611Z,56.40
2023-05-12T10:39:51.692Z,56.37
2023-05-12T10:42:26.275Z,56.24
2023-05-12T10:44:56.699Z,56.42
2023-05-12T10:47:29.594Z,56.19
2023-05-12T10:50:01.202Z,56.04
2023-05-12T10:52:30.002Z,56.12
2023-05-12T10:55:03.502Z,56.18
2023-05-12T10:57:33.514Z,55.84
2023-05-12T11:00:03.870Z,56.15
2023-05-12T11:02:36.152Z,56.19
2023-05-12T11:05:13.038Z,56.27
2023-05-12T11:07:50.083Z,56.20
2023-05-12T11:10:19.594Z,56.44
2023-05-12T11:12:48.854Z,56.03
2023-05-12T11:15:18.081Z,56.28
2023-05-12T11:17:49.336Z,56.04
2023-05-12T11:20:29.471Z,56.15
2023-05-12T11:22:59.806Z,56.03
2023-05-12T11:25:28.565Z,55.94
2023-05-12T11:27:57.657Z,55.68
2023-05-12T11:30:26.130Z,55.84
2023-05-12T11:33:02.839Z,55.77
2023-05-12T11:35:32.838Z,55.60
2023-05-12T11:38:03.308Z,55.52
2023-05-12T11:40:31.757Z,55.62
2023-05-12T11:43:01.820Z,55.50
2023-05-12T11:45:30.831Z,55.71
2023-05-12T11:48:11.916Z,55.45
2023-05-12T11:50:43.053Z,55.82
2023-05-12T11:53:15.212Z,55.79
2023-05-12T11:55:56.991Z,55.33
2023-05-12T11:58:29.506Z,55.31
2023-05-12T12:01:08.387Z,55.69
2023-05-12T12:03:49.117Z,55.64
2023-05-12T12:06:18.029Z,55.54
2023-05-12T12:09:02.531Z,55.42
2023-05-12T12:11:31.542Z,55.34
2023-05-12T12:14:01.032Z,55.57
2023-05-12T12:16:31.679Z,55.50
2023-05-12T12:19:00.427Z,55.31
2023-05-12T12:21:28.784Z,55.38
2023-05-12T12:23:57.799Z,55.16
2023-05-12T12:26:26.209Z,55.29
2023-05-12T12:28:55.030Z,55.34
2023-05-12T12:31:23.285Z,55.01
2023-05-12T12:33:51.886Z,55.36
2023-05-12T12:36:20.230Z,55.21
2023-05-12T12:38:49.031Z,55.09
2023-05-12T12:41:17.226Z,55.02
2023-05-12T12:43:45.820Z,55.04
2023-05-12T12:46:14.190Z,54.98
2023-05-12T12:48:43.263Z,54.81
2023-05-12T12:51:11.886Z,54.63
2023-05-12T12:53:43.540Z,54.56
2023-05-12T12:56:12.295Z,54.82
2023-05-12T12:58:41.530Z,54.62
2023-05-12T13:01:09.776Z,54.69
2023-05-12T13:03:38.655Z,54.70
2023-05-12T13:06:07.195Z,54.60
2023-05-12T13:08:35.914Z,54.49
2023-05-12T13:11:04.222Z,54.45
2023-05-12T13:13:32.853Z,54.29
2023-05-12T13:16:01.134Z,54.50
2023-05-12T13:18:29.828Z,54.65
2023-05-12T13:20:58.543Z,54.63
2023-05-12T13:23:27.106Z,54.33
2023-05-12T13:25:55.393Z,54.50
2023-05-12T13:28:24.135Z,54.62
2023-05-12T13:30:52.998Z,54.49
2023-05-12T13:33:21.965Z,54.65
2023-05-12T13:35:50.267Z,54.68
2023-05-12T13:38:20.030Z,54.61
2023-05-12T13:40:48.351Z,54.62
2023-05-12T13:43:16.942Z,54.30
2023-05-12T13:45:45.407Z,54.26
2023-05-12T13:48:14.165Z,54.15
2023-05-12T13:50:42.670Z,54.18
2023-05-12T13:53:12.904Z,54.39
2023-05-12T13:55:41.592Z,54.00
2023-05-12T13:58:10.206Z,54.09
2023-05-12T14:00:38.610Z,54.06
2023-05-12T14:03:08.142Z,53.99
2023-05-12T14:05:36.517Z,54.03
2023-05-12T14:08:05.403Z,53.83
2023-05-12T14:10:35.552Z,53.96
2023-05-12T14:13:04.592Z,53.85
2023-05-12T14:15:47.179Z,53.91
2023-05-12T14:18:17.649Z,53.91
2023-05-12T14:20:46.399Z,53.87
2023-05-12T14:23:15.157Z,53.75
2023-05-12T14:25:43.524Z,53.75
2023-05-12T14:28:12.541Z,53.94
2023-05-12T14:30:41.028Z,53.84
2023-05-12T14:33:09.712Z,53.70
2023-05-12T14:35:38.237Z,53.86
2023-05-12T14:38:06.828Z,53.63
2023-05-12T14:40:35.182Z,53.76
2023-05-12T14:43:03.754Z,53.96
2023-05-12T14:45:32.309Z,53.87
2023-05-12T14:48:01.152Z,53.74
2023-05-12T14:50:29.726Z,53.85
2023-05-12T14:52:58.683Z,53.81
2023-05-12T14:55:28.563Z,53.75
2023-05-12T14:57:57.465Z,54.14
2023-05-12T15:00:26.113Z,53.94
2023-05-12T15:02:54.768Z,54.08
2023-05-12T15:05:32.454Z,54.05
2023-05-12T15:08:10.766Z,53.96
2023-05-12T15:10:39.077Z,54.04
2023-05-12T15:13:08.114Z,54.03
2023-05-12T15:15:39.492Z,53.95
2023-05-12T15:18:08.487Z,53.79
2023-05-12T15:20:37.787Z,53.80
2023-05-12T15:23:06.481Z,53.79
2023-05-12T15:25:34.917Z,54.03
2023-05-12T15:28:03.744Z,53.98
2023-05-12T15:30:32.151Z,54.02
2023-05-12T15:33:04.371Z,53.98
2023-05-12T15:35:33.282Z,54.01
2023-05-12T15:38:02.038Z,54.10
2023-05-12T15:40:31.311Z,54.10
2023-05-12T15:43:00.109Z,54.14
2023-05-12T15:45:28.510Z,53.85
2023-05-12T15:47:58.276Z,54.02
2023-05-12T15:50:26.664Z,54.14
2023-05-12T15:52:57.411Z,54.07
2023-05-12T15:55:25.787Z,54.05
2023-05-12T15:57:54.445Z,53.88
2023-05-12T16:00:22.976Z,53.89
2023-05-12T16:02:51.629Z,53.94
2023-05-12T16:05:20.485Z,53.84
2023-05-12T16:07:49.322Z,53.63
2023-05-12T16:10:17.731Z,53.80
2023-05-12T16:12:46.450Z,53.93
2023-05-12T16:15:14.854Z,53.78
2023-05-12T16:17:43.617Z,53.82
2023-05-12T16:20:12.889Z,53.66
2023-05-12T16:22:41.502Z,53.58
2023-05-12T16:25:09.921Z,53.51
2023-05-12T16:27:39.019Z,53.51
2023-05-12T16:30:08.658Z,53.20
2023-05-12T16:32:37.287Z,53.31
2023-05-12T16:35:07.012Z,53.41
2023-05-12T16:37:35.602Z,53.46
2023-05-12T16:40:04.471Z,53.27
2023-05-12T16:42:33.324Z,53.18
2023-05-12T16:45:01.733Z,53.18
2023-05-12T16:47:30.521Z,53.24
2023-05-12T16:50:00.037Z,53.19
2023-05-12T16:52:28.926Z,53.14
2023-05-12T16:55:00.381Z,53.02
2023-05-12T16:57:29.060Z,52.99
2023-05-12T16:59:57.442Z,53.03
2023-05-12T17:02:26.035Z,53.33
2023-05-12T17:04:54.397Z,53.32
2023-05-12T17:07:23.522Z,53.39
2023-05-12T17:09:51.962Z,53.23
2023-05-12T17:12:20.927Z,53.29
2023-05-12T17:14:59.436Z,53.77
2023-05-12T17:17:35.893Z,53.41
2023-05-12T17:20:06.310Z,53.80
2023-05-12T17:22:37.394Z,53.76
2023-05-12T17:25:06.290Z,53.90
2023-05-12T17:27:34.920Z,54.07
2023-05-12T17:30:04.692Z,54.43
2023-05-12T17:32:33.414Z,54.37
2023-05-12T17:35:01.685Z,54.54
2023-05-12T17:37:30.715Z,54.58
2023-05-12T17:39:59.664Z,54.89
2023-05-12T17:42:31.494Z,54.88
2023-05-12T17:45:00.021Z,55.29
2023-05-12T17:47:28.758Z,55.10
2023-05-12T17:49:57.156Z,55.14
2023-05-12T17:52:26.141Z,55.29
2023-05-12T17:54:57.469Z,55.16
2023-05-12T17:57:26.133Z,54.92
2023-05-12T17:59:54.403Z,54.69
2023-05-12T18:02:23.169Z,54.25
2023-05-12T18:04:51.567Z,53.99
2023-05-12T18:07:20.418Z,53.46
2023-05-12T18:09:48.710Z,53.47
2023-05-12T18:12:18.624Z,53.26
2023-05-12T18:14:47.410Z,53.02
2023-05-12T18:17:16.993Z,53.10
2023-05-12T18:19:45.547Z,52.97
2023-05-12T18:22:16.287Z,52.74
2023-05-12T18:24:44.906Z,52.79
2023-05-12T18:27:13.871Z,53.03
2023-05-12T18:29:42.572Z,53.06
2023-05-12T18:32:11.708Z,53.12
2023-05-12T18:34:41.937Z,53.54
2023-05-12T18:37:15.789Z,53.74
2023-05-12T18:39:44.507Z,54.32
2023-05-12T18:42:13.733Z,54.56
2023-05-12T18:44:42.511Z,54.82
2023-05-12T18:47:11.695Z,54.70
2023-05-12T18:49:40.194Z,54.82
2023-05-12T18:52:09.094Z,54.61
2023-05-12T18:54:38.216Z,54.55
2023-05-12T18:57:07.232Z,54.57
2023-05-12T18:59:35.773Z,54.33
2023-05-12T19:02:04.838Z,54.11
2023-05-12T19:04:33.659Z,54.36
2023-05-12T19:07:02.804Z,54.07
2023-05-12T19:09:31.563Z,54.25
2023-05-12T19:12:00.432Z,54.42
2023-05-12T19:14:28.732Z,54.20
2023-05-12T19:16:58.874Z,54.59
2023-05-12T19:19:27.150Z,54.30
2023-05-12T19:21:55.895Z,54.33
2023-05-12T19:24:26.003Z,54.54
2023-05-12T19:26:54.868Z,54.48
2023-05-12T19:29:23.457Z,54.23
2023-05-12T19:31:53.306Z,54.74
2023-05-12T19:34:21.847Z,54.80
2023-05-12T19:36:53.142Z,54.75
2023-05-12T19:39:21.573Z,55.12
2023-05-12T19:41:51.712Z,54.80
2023-05-12T19:44:20.069Z,54.92
2023-05-12T19:46:48.887Z,54.98
2023-05-12T19:49:17.333Z,55.13
2023-05-12T19:51:46.092Z,54.78
2023-05-12T19:54:14.458Z,54.98
2023-05-12T19:56:43.151Z,54.92
2023-05-12T19:59:11.514Z,54.92
2023-05-12T20:01:41.254Z,54.80
2023-05-12T20:04:09.689Z,54.60
2023-05-12T20:06:38.364Z,54.45
2023-05-12T20:09:07.314Z,54.79
2023-05-12T20:11:36.117Z,54.34
2023-05-12T20:14:04.477Z,54.36
2023-05-12T20:16:33.373Z,54.30
2023-05-12T20:19:02.991Z,53.94
2023-05-12T20:21:32.295Z,53.92
2023-05-12T20:24:00.769Z,54.05
2023-05-12T20:26:30.770Z,53.63
2023-05-12T20:29:00.479Z,53.60
2023-05-12T20:31:29.329Z,53.76
2023-05-12T20:33:58.045Z,53.99
2023-05-12T20:36:26.788Z,53.82
2023-05-12T20:38:55.123Z,53.82
2023-05-12T20:41:23.926Z,54.51
2023-05-12T20:43:52.309Z,53.43
2023-05-12T20:46:21.207Z,53.51
2023-05-12T20:48:49.549Z,54.61
2023-05-12T20:51:18.167Z,54.45
2023-05-12T20:53:46.507Z,54.43
2023-05-12T20:56:15.357Z,54.16
2023-05-12T20:58:43.882Z,53.71
2023-05-12T21:01:12.699Z,53.57
2023-05-12T21:03:42.339Z,54.38
2023-05-12T21:06:12.437Z,54.06
2023-05-12T21:08:41.348Z,54.19
2023-05-12T21:11:17.719Z,54.19
2023-05-12T21:13:47.772Z,54.04
2023-05-12T21:16:17.063Z,54.29
2023-05-12T21:18:45.863Z,54.36
2023-05-12T21:21:14.767Z,54.24
2023-05-12T21:23:43.396Z,54.30
2023-05-12T21:26:12.774Z,54.41
2023-05-12T21:28:41.392Z,54.57
2023-05-12T21:31:10.194Z,54.39
2023-05-12T21:33:38.845Z,54.65
2023-05-12T21:36:08.090Z,54.26
2023-05-12T21:38:36.627Z,54.42
2023-05-12T21:41:05.945Z,54.35
2023-05-12T21:43:34.613Z,54.56
2023-05-12T21:46:04.832Z,54.50
2023-05-12T21:48:34.767Z,54.35
2023-05-12T21:51:04.141Z,54.67
2023-05-12T21:53:32.501Z,54.53
2023-05-12T21:56:01.181Z,54.67
2023-05-12T21:58:30.404Z,54.71
2023-05-12T22:01:00.140Z,54.60
2023-05-12T22:03:28.596Z,54.60
2023-05-12T22:05:57.389Z,54.81
2023-05-12T22:08:25.989Z,54.69
2023-05-12T22:10:54.659Z,54.89
2023-05-12T22:13:23.002Z,54.58
2023-05-12T22:15:51.724Z,54.63
2023-05-12T22:18:21.357Z,54.66
2023-05-12T22:20:50.354Z,54.90
2023-05-12T22:23:18.759Z,54.77
2023-05-12T22:25:47.744Z,54.88
2023-05-12T22:28:17.021Z,54.91
2023-05-12T22:30:45.681Z,54.91
2023-05-12T22:33:14.036Z,54.74
2023-05-12T22:35:43.086Z,54.96
2023-05-12T22:38:11.423Z,54.85
2023-05-12T22:40:40.103Z,54.87
2023-05-12T22:43:09.721Z,55.02
2023-05-12T22:45:38.338Z,54.93
2023-05-12T22:48:06.675Z,55.02
2023-05-12T22:50:35.378Z,54.84
2023-05-12T22:53:03.625Z,55.03
2023-05-12T22:55:32.344Z,54.84
2023-05-12T22:58:00.720Z,55.00
2023-05-12T23:00:29.319Z,55.14
2023-05-12T23:02:57.750Z,55.15
2023-05-12T23:05:26.505Z,55.06
2023-05-12T23:07:54.918Z,55.18
2023-05-12T23:10:24.118Z,55.38
2023-05-12T23:12:52.596Z,55.24
2023-05-12T23:15:21.486Z,55.24
2023-05-12T23:17:49.895Z,55.47
2023-05-12T23:20:19.201Z,55.34
2023-05-12T23:22:47.742Z,55.54
2023-05-12T23:25:16.598Z,55.43
2023-05-12T23:27:44.984Z,55.63
2023-05-12T23:30:13.968Z,55.52
2023-05-12T23:32:42.683Z,55.97
2023-05-12T23:35:11.550Z,55.84
2023-05-12T23:37:39.888Z,56.13
2023-05-12T23:40:09.462Z,55.99
2023-05-12T23:42:37.849Z,56.15
2023-05-12T23:45:07.739Z,55.97
2023-05-12T23:47:36.401Z,56.17
2023-05-12T23:50:05.920Z,56.34
2023-05-12T23:52:34.198Z,56.53
2023-05-12T23:55:02.861Z,56.33
2023-05-12T23:57:31.221Z,56.49
2023-05-12T23:59:59.948Z,56.58
